createdAt,value
2022-10-23T00:02:16.663Z,3.85
2022-10-23T00:04:44.655Z,4.10
2022-10-23T00:07:13.898Z,3.60
2022-10-23T00:09:41.708Z,3.80
2022-10-23T00:12:09.553Z,3.90
2022-10-23T00:14:37.604Z,4.55
2022-10-23T00:17:05.423Z,4.68
2022-10-23T00:19:33.298Z,4.82
2022-10-23T00:22:01.090Z,4.03
2022-10-23T00:24:30.252Z,4.30
2022-10-23T00:26:58.142Z,3.95
2022-10-23T00:29:28.075Z,4.15
2022-10-23T00:31:55.929Z,4.35
2022-10-23T00:34:23.748Z,5.03
2022-10-23T00:36:51.577Z,4.75
2022-10-23T00:39:19.403Z,4.25
2022-10-23T00:41:48.587Z,4.40
2022-10-23T00:44:49.543Z,4.30
2022-10-23T00:47:18.354Z,5.13
2022-10-23T00:49:46.205Z,5.57
2022-10-23T00:52:15.162Z,4.47
2022-10-23T00:54:45.388Z,4.05
2022-10-23T00:57:16.717Z,4.47
2022-10-23T00:59:44.646Z,3.80
2022-10-23T01:02:12.695Z,4.53
2022-10-23T01:04:40.669Z,4.30
2022-10-23T01:07:15.608Z,3.78
2022-10-23T01:09:48.204Z,4.28
2022-10-23T01:12:25.291Z,4.40
2022-10-23T01:15:02.167Z,4.15
2022-10-23T01:17:39.696Z,3.80
2022-10-23T01:20:30.212Z,4.30
2022-10-23T01:23:18.386Z,4.18
2022-10-23T01:26:03.499Z,4.68
2022-10-23T01:28:39.856Z,4.60
2022-10-23T01:31:15.343Z,4.00
2022-10-23T01:33:48.493Z,4.18
2022-10-23T01:36:28.675Z,3.65
2022-10-23T01:41:43.400Z,4.18
2022-10-23T01:44:17.469Z,4.10
2022-10-23T01:46:46.762Z,4.10
2022-10-23T01:49:16.015Z,4.82
2022-10-23T01:51:48.546Z,3.97
2022-10-23T01:54:19.358Z,3.65
2022-10-23T01:56:51.269Z,4.72
2022-10-23T01:59:29.641Z,4.30
2022-10-23T02:02:00.526Z,4.05
2022-10-23T02:04:34.112Z,4.32
2022-10-23T02:07:02.414Z,4.15
2022-10-23T02:09:30.300Z,4.72
2022-10-23T02:12:03.601Z,4.28
2022-10-23T02:14:41.893Z,4.20
2022-10-23T02:17:16.528Z,4.32
2022-10-23T02:19:50.458Z,4.28
2022-10-23T02:22:24.753Z,4.30
2022-10-23T02:24:57.221Z,3.63
2022-10-23T02:27:31.463Z,3.92
2022-10-23T02:30:06.230Z,4.25
2022-10-23T02:32:37.072Z,4.28
2022-10-23T02:35:05.599Z,4.95
2022-10-23T02:37:34.062Z,3.80
2022-10-23T02:40:04.984Z,4.03
2022-10-23T02:42:48.250Z,4.18
2022-10-23T02:45:25.205Z,4.32
2022-10-23T02:47:59.372Z,4.28
2022-10-23T02:50:34.116Z,4.05
2022-10-23T02:53:11.150Z,4.63
2022-10-23T02:55:49.044Z,5.07
2022-10-23T02:58:25.262Z,4.30
2022-10-23T03:01:00.969Z,5.20
2022-10-23T03:03:33.664Z,4.45
2022-10-23T03:06:01.978Z,4.57
2022-10-23T03:08:29.836Z,4.90
2022-10-23T03:10:57.829Z,4.43
2022-10-23T03:13:28.389Z,3.85
2022-10-23T03:15:57.592Z,4.93
2022-10-23T03:18:27.919Z,4.43
2022-10-23T03:20:59.727Z,4.55
2022-10-23T03:23:27.627Z,4.72
2022-10-23T03:25:56.461Z,4.75
2022-10-23T03:28:36.204Z,4.78
2022-10-23T03:31:05.713Z,5.10
2022-10-23T03:33:34.348Z,4.82
2022-10-23T03:36:11.391Z,5.07
2022-10-23T03:38:39.351Z,4.50
2022-10-23T03:41:07.452Z,4.65
2022-10-23T03:43:35.254Z,4.75
2022-10-23T03:46:09.130Z,4.43
2022-10-23T03:51:06.890Z,5.88
2022-10-23T03:53:34.854Z,4.53
2022-10-23T03:56:04.816Z,4.82
2022-10-23T03:58:34.754Z,4.82
2022-10-23T04:01:02.752Z,4.72
2022-10-23T04:03:31.964Z,5.25
2022-10-23T04:05:59.808Z,5.10
2022-10-23T04:08:27.653Z,5.18
2022-10-23T04:10:56.336Z,4.75
2022-10-23T04:13:46.431Z,5.03
2022-10-23T04:16:14.414Z,4.97
2022-10-23T04:18:44.045Z,5.15
2022-10-23T04:21:12.306Z,5.25
2022-10-23T04:23:40.946Z,5.38
2022-10-23T04:26:17.886Z,5.32
2022-10-23T04:28:45.894Z,4.75
2022-10-23T04:31:14.003Z,4.85
2022-10-23T04:33:45.326Z,5.15
2022-10-23T04:36:27.155Z,4.72
2022-10-23T04:38:55.021Z,5.47
2022-10-23T04:41:22.886Z,5.10
2022-10-23T04:43:50.787Z,5.25
2022-10-23T04:46:18.976Z,5.50
2022-10-23T04:48:51.059Z,5.43
2022-10-23T04:51:29.546Z,4.57
2022-10-23T04:54:13.525Z,5.30
2022-10-23T04:56:48.468Z,5.43
2022-10-23T04:59:22.045Z,5.47
2022-10-23T05:01:50.288Z,4.90
2022-10-23T05:04:20.606Z,5.53
2022-10-23T05:07:07.171Z,5.80
2022-10-23T05:09:50.721Z,5.50
2022-10-23T05:12:33.014Z,5.47
2022-10-23T05:15:01.270Z,6.07
2022-10-23T05:17:34.093Z,5.60
2022-10-23T05:20:08.704Z,6.10
2022-10-23T05:22:39.970Z,6.28
2022-10-23T05:25:11.501Z,6.43
2022-10-23T05:27:41.869Z,5.82
2022-10-23T05:30:13.808Z,5.90
2022-10-23T05:32:42.997Z,6.10
2022-10-23T05:35:17.185Z,6.22
2022-10-23T05:37:50.904Z,5.80
2022-10-23T05:40:22.319Z,5.70
2022-10-23T05:42:54.718Z,5.20
2022-10-23T05:45:32.529Z,5.70
2022-10-23T05:48:33.413Z,6.10
2022-10-23T05:51:23.262Z,5.78
2022-10-23T05:54:01.695Z,5.43
2022-10-23T05:56:34.362Z,5.13
2022-10-23T05:59:23.271Z,5.95
2022-10-23T06:02:20.745Z,5.18
2022-10-23T06:04:56.971Z,6.35
2022-10-23T06:07:35.005Z,5.90
2022-10-23T06:10:06.967Z,6.20
2022-10-23T06:12:39.578Z,5.35
2022-10-23T06:15:08.730Z,5.90
2022-10-23T06:18:02.983Z,5.75
2022-10-23T06:20:36.631Z,6.20
2022-10-23T06:23:12.248Z,5.15
2022-10-23T06:26:03.466Z,6.00
2022-10-23T06:28:49.276Z,6.13
2022-10-23T06:31:19.096Z,5.70
2022-10-23T06:33:47.140Z,5.28
2022-10-23T06:36:15.556Z,5.68
2022-10-23T06:38:45.870Z,5.97
2022-10-23T06:41:16.453Z,5.95
2022-10-23T06:43:49.114Z,6.07
2022-10-23T06:46:49.304Z,5.68
2022-10-23T06:49:43.578Z,6.18
2022-10-23T06:52:23.154Z,6.32
2022-10-23T06:55:00.749Z,6.95
2022-10-23T06:57:35.249Z,6.43
2022-10-23T07:00:03.216Z,6.13
2022-10-23T07:02:35.890Z,7.30
2022-10-23T07:05:06.016Z,7.10
2022-10-23T07:07:35.583Z,6.57
2022-10-23T07:10:07.306Z,7.07
2022-10-23T07:12:42.288Z,6.38
2022-10-23T07:15:31.059Z,7.50
2022-10-23T07:17:59.542Z,6.53
2022-10-23T07:20:34.535Z,7.50
2022-10-23T07:23:02.416Z,6.90
2022-10-23T07:25:38.083Z,6.70
2022-10-23T07:28:07.289Z,7.72
2022-10-23T07:30:35.183Z,6.68
2022-10-23T07:33:04.299Z,6.93
2022-10-23T07:38:29.031Z,6.53
2022-10-23T07:41:00.148Z,6.28
2022-10-23T07:43:28.650Z,6.85
2022-10-23T07:45:56.830Z,6.47
2022-10-23T07:48:31.538Z,6.78
2022-10-23T07:51:01.840Z,6.13
2022-10-23T07:53:30.917Z,6.63
2022-10-23T07:56:14.140Z,6.10
2022-10-23T07:59:02.188Z,7.35
2022-10-23T08:01:33.554Z,7.05
2022-10-23T08:04:02.031Z,5.80
2022-10-23T08:06:31.066Z,6.13
2022-10-23T08:09:02.323Z,6.75
2022-10-23T08:11:36.242Z,7.40
2022-10-23T08:14:08.204Z,6.15
2022-10-23T08:16:39.328Z,5.65
2022-10-23T08:19:08.790Z,6.38
2022-10-23T08:21:40.123Z,5.43
2022-10-23T08:24:13.699Z,5.55
2022-10-23T08:26:47.521Z,5.35
2022-10-23T08:29:15.395Z,5.55
2022-10-23T08:31:43.733Z,5.40
2022-10-23T08:34:26.055Z,5.50
2022-10-23T08:36:55.190Z,5.75
2022-10-23T08:39:24.839Z,4.85
2022-10-23T08:42:20.401Z,5.20
2022-10-23T08:44:59.082Z,4.82
2022-10-23T08:47:34.848Z,5.13
2022-10-23T08:50:26.976Z,4.05
2022-10-23T08:53:00.249Z,3.90
2022-10-23T08:55:34.211Z,3.83
2022-10-23T08:58:08.563Z,3.85
2022-10-23T09:00:36.422Z,3.97
2022-10-23T09:03:06.426Z,3.88
2022-10-23T09:05:40.775Z,3.47
2022-10-23T09:08:29.906Z,3.97
2022-10-23T09:11:05.452Z,3.97
2022-10-23T09:14:12.524Z,3.67
2022-10-23T09:16:56.323Z,3.58
2022-10-23T09:19:27.249Z,3.88
2022-10-23T09:21:56.505Z,4.00
2022-10-23T09:24:26.156Z,3.80
2022-10-23T09:26:55.236Z,3.72
2022-10-23T09:29:26.792Z,4.30
2022-10-23T09:31:56.794Z,3.63
2022-10-23T09:34:26.983Z,4.18
2022-10-23T09:36:56.839Z,3.90
2022-10-23T09:39:28.480Z,3.60
2022-10-23T09:41:57.097Z,4.28
2022-10-23T09:44:27.940Z,4.07
2022-10-23T09:47:01.223Z,3.95
2022-10-23T09:49:31.305Z,3.33
2022-10-23T09:52:04.406Z,3.67
2022-10-23T09:54:34.392Z,3.63
2022-10-23T09:57:13.653Z,3.25
2022-10-23T09:59:43.565Z,2.92
2022-10-23T10:02:23.957Z,3.05
2022-10-23T10:05:24.387Z,3.80
2022-10-23T10:07:59.306Z,2.72
2022-10-23T10:10:35.747Z,2.35
2022-10-23T10:13:15.131Z,1.75
2022-10-23T10:15:51.611Z,1.77
2022-10-23T10:18:27.553Z,2.25
2022-10-23T10:21:09.347Z,2.15
2022-10-23T10:23:47.110Z,2.03
2022-10-23T10:26:26.902Z,1.90
2022-10-23T10:29:06.257Z,2.00
2022-10-23T10:31:50.713Z,1.85
2022-10-23T10:34:29.947Z,2.40
2022-10-23T10:37:06.750Z,2.00
2022-10-23T10:39:48.732Z,1.90
2022-10-23T10:42:33.549Z,2.08
2022-10-23T10:45:18.404Z,2.10
2022-10-23T10:47:57.249Z,2.28
2022-10-23T10:50:37.703Z,1.95
2022-10-23T10:53:24.474Z,1.85
2022-10-23T10:55:55.500Z,1.90
2022-10-23T10:58:31.334Z,2.03
2022-10-23T11:01:02.227Z,2.30
2022-10-23T11:03:40.609Z,1.95
2022-10-23T11:06:16.164Z,2.38
2022-10-23T11:08:57.562Z,1.88
2022-10-23T11:11:34.051Z,2.08
2022-10-23T11:14:02.995Z,2.25
2022-10-23T11:16:35.953Z,1.80
2022-10-23T11:19:14.053Z,2.20
2022-10-23T11:21:45.319Z,1.85
2022-10-23T11:24:55.797Z,2.13
2022-10-23T11:31:24.654Z,1.70
2022-10-23T11:34:34.817Z,2.55
2022-10-23T11:37:04.805Z,2.28
2022-10-23T11:39:34.650Z,1.90
2022-10-23T11:42:15.954Z,2.03
2022-10-23T11:47:39.265Z,1.75
2022-10-23T11:50:28.368Z,2.00
2022-10-23T11:53:14.546Z,2.30
2022-10-23T11:55:59.803Z,1.80
2022-10-23T11:58:32.512Z,1.67
2022-10-23T12:01:04.808Z,1.83
2022-10-23T12:03:42.712Z,1.83
2022-10-23T12:06:24.396Z,1.88
2022-10-23T12:08:56.083Z,1.67
2022-10-23T12:11:27.819Z,1.80
2022-10-23T12:13:56.206Z,1.90
2022-10-23T12:16:34.846Z,2.90
2022-10-23T12:19:20.600Z,2.30
2022-10-23T12:21:52.769Z,2.10
2022-10-23T12:24:39.643Z,2.20
2022-10-23T12:27:18.078Z,1.85
2022-10-23T12:30:03.676Z,2.05
2022-10-23T12:33:14.568Z,1.40
2022-10-23T12:36:22.997Z,1.58
2022-10-23T12:38:52.542Z,1.70
2022-10-23T12:41:26.084Z,5.15
2022-10-23T12:43:58.092Z,1.80
2022-10-23T12:46:35.204Z,4.13
2022-10-23T12:49:15.177Z,2.20
2022-10-23T12:51:43.169Z,1.40
2022-10-23T12:54:17.810Z,2.05
2022-10-23T12:56:46.160Z,1.40
2022-10-23T12:59:17.827Z,1.60
2022-10-23T13:01:50.419Z,1.85
2022-10-23T13:04:28.648Z,1.85
2022-10-23T13:06:58.148Z,1.88
2022-10-23T13:09:31.331Z,2.10
2022-10-23T13:12:22.348Z,2.05
2022-10-23T13:14:59.364Z,1.83
2022-10-23T13:17:36.383Z,1.77
2022-10-23T13:20:24.196Z,1.65
2022-10-23T13:23:00.594Z,1.80
2022-10-23T13:25:32.355Z,2.33
2022-10-23T13:28:14.900Z,1.95
2022-10-23T13:30:46.190Z,2.40
2022-10-23T13:33:24.060Z,1.90
2022-10-23T13:35:58.996Z,2.00
2022-10-23T13:38:31.222Z,2.42
2022-10-23T13:41:02.061Z,2.45
2022-10-23T13:43:31.697Z,2.08
2022-10-23T13:46:00.256Z,2.38
2022-10-23T13:48:28.924Z,1.98
2022-10-23T13:51:02.880Z,2.10
2022-10-23T13:57:19.281Z,1.73
2022-10-23T13:59:47.094Z,2.05
2022-10-23T14:02:20.726Z,2.10
2022-10-23T14:04:48.932Z,1.90
2022-10-23T14:07:17.140Z,2.08
2022-10-23T14:09:45.097Z,2.10
2022-10-23T14:12:13.580Z,1.88
2022-10-23T14:14:42.828Z,1.90
2022-10-23T14:17:10.677Z,1.88
2022-10-23T14:19:38.513Z,2.13
2022-10-23T14:22:06.452Z,1.70
2022-10-23T14:24:34.318Z,2.60
2022-10-23T14:27:02.158Z,2.17
2022-10-23T14:29:30.435Z,2.08
2022-10-23T14:31:59.575Z,2.47
2022-10-23T14:34:27.375Z,2.00
2022-10-23T14:37:08.077Z,2.35
2022-10-23T14:39:37.194Z,1.70
2022-10-23T14:42:05.404Z,1.52
2022-10-23T14:44:33.233Z,2.20
2022-10-23T14:47:03.106Z,1.60
2022-10-23T14:49:31.466Z,2.00
2022-10-23T14:51:59.361Z,1.85
2022-10-23T14:54:29.270Z,1.98
2022-10-23T14:56:57.112Z,1.85
2022-10-23T14:59:24.906Z,2.47
2022-10-23T15:04:26.780Z,2.00
2022-10-23T15:06:55.025Z,2.50
2022-10-23T15:09:22.839Z,2.17
2022-10-23T15:11:50.849Z,2.10
2022-10-23T15:14:18.739Z,1.95
2022-10-23T15:16:48.180Z,2.08
2022-10-23T15:19:18.501Z,2.28
2022-10-23T15:21:49.108Z,2.75
2022-10-23T15:24:16.994Z,2.50
2022-10-23T15:26:44.832Z,2.17
2022-10-23T15:29:14.543Z,2.13
2022-10-23T15:31:45.772Z,2.30
2022-10-23T15:34:15.846Z,2.22
2022-10-23T15:36:44.843Z,2.78
2022-10-23T15:39:16.298Z,2.80
2022-10-23T15:41:44.462Z,2.28
2022-10-23T15:44:15.488Z,2.17
2022-10-23T15:46:43.290Z,2.33
2022-10-23T15:49:11.430Z,2.20
2022-10-23T15:51:40.634Z,2.15
2022-10-23T15:54:09.882Z,1.90
2022-10-23T15:56:39.178Z,1.98
2022-10-23T15:59:07.049Z,2.58
2022-10-23T16:01:34.972Z,3.10
2022-10-23T16:04:03.190Z,2.65
2022-10-23T16:06:31.100Z,2.42
2022-10-23T16:08:59.088Z,2.70
2022-10-23T16:11:29.124Z,2.55
2022-10-23T16:14:00.017Z,2.35
2022-10-23T16:16:29.218Z,2.47
2022-10-23T16:18:59.166Z,2.65
2022-10-23T16:21:29.283Z,2.58
2022-10-23T16:23:59.529Z,2.88
2022-10-23T16:26:28.444Z,3.20
2022-10-23T16:28:59.150Z,2.80
2022-10-23T16:31:27.527Z,2.63
2022-10-23T16:33:55.747Z,2.33
2022-10-23T16:36:23.553Z,2.65
2022-10-23T16:39:20.153Z,3.00
2022-10-23T16:42:07.059Z,3.10
2022-10-23T16:44:53.294Z,3.80
2022-10-23T16:47:21.279Z,3.50
2022-10-23T16:49:49.242Z,3.58
2022-10-23T16:52:17.062Z,2.90
2022-10-23T16:54:45.221Z,3.28
2022-10-23T16:57:13.051Z,3.47
2022-10-23T16:59:40.873Z,3.33
2022-10-23T17:02:10.645Z,3.08
2022-10-23T17:04:39.648Z,3.47
2022-10-23T17:07:08.073Z,3.75
2022-10-23T17:09:36.000Z,3.20
2022-10-23T17:12:04.269Z,3.05
2022-10-23T17:14:32.430Z,3.40
2022-10-23T17:17:02.289Z,3.17
2022-10-23T17:19:44.544Z,3.70
2022-10-23T17:22:14.007Z,3.72
2022-10-23T17:24:45.101Z,2.88
2022-10-23T17:27:15.590Z,3.92
2022-10-23T17:29:44.149Z,3.45
2022-10-23T17:32:12.114Z,3.65
2022-10-23T17:34:41.349Z,3.90
2022-10-23T17:37:10.168Z,3.38
2022-10-23T17:39:38.188Z,3.00
2022-10-23T17:42:06.045Z,3.40
2022-10-23T17:44:33.934Z,3.25
2022-10-23T17:47:01.998Z,3.72
2022-10-23T17:49:29.867Z,3.13
2022-10-23T17:51:59.312Z,3.40
2022-10-23T17:54:28.396Z,3.45
2022-10-23T17:56:56.501Z,3.17
2022-10-23T17:59:24.555Z,3.75
2022-10-23T18:01:52.610Z,3.30
2022-10-23T18:04:22.471Z,3.90
2022-10-23T18:06:52.459Z,3.90
2022-10-23T18:09:23.465Z,3.55
2022-10-23T18:11:52.726Z,3.83
2022-10-23T18:14:28.515Z,3.30
2022-10-23T18:16:57.711Z,3.88
2022-10-23T18:19:25.589Z,3.90
2022-10-23T18:21:53.849Z,3.35
2022-10-23T18:24:23.815Z,3.35
2022-10-23T18:26:51.915Z,3.50
2022-10-23T18:29:20.774Z,4.57
2022-10-23T18:31:49.285Z,3.60
2022-10-23T18:34:19.252Z,3.53
2022-10-23T18:36:48.104Z,4.18
2022-10-23T18:39:18.408Z,4.35
2022-10-23T18:41:47.657Z,3.60
2022-10-23T18:44:17.782Z,4.05
2022-10-23T18:46:47.779Z,3.63
2022-10-23T18:49:17.104Z,3.97
2022-10-23T18:51:44.999Z,3.78
2022-10-23T18:54:15.958Z,3.70
2022-10-23T18:56:44.408Z,3.55
2022-10-23T18:59:16.245Z,3.47
2022-10-23T19:01:45.579Z,3.40
2022-10-23T19:04:16.159Z,3.50
2022-10-23T19:06:46.136Z,3.78
2022-10-23T19:09:15.224Z,3.72
2022-10-23T19:11:43.962Z,3.65
2022-10-23T19:14:13.537Z,3.58
2022-10-23T19:16:44.665Z,3.20
2022-10-23T19:19:16.500Z,3.55
2022-10-23T19:21:45.574Z,3.40
2022-10-23T19:24:17.068Z,3.40
2022-10-23T19:26:45.569Z,3.58
2022-10-23T19:29:18.163Z,3.22
2022-10-23T19:31:49.107Z,3.20
2022-10-23T19:34:19.982Z,4.10
2022-10-23T19:36:48.565Z,3.58
2022-10-23T19:39:16.756Z,4.28
2022-10-23T19:41:44.646Z,4.00
2022-10-23T19:44:14.062Z,3.50
2022-10-23T19:46:42.060Z,3.63
2022-10-23T19:49:10.592Z,3.38
2022-10-23T19:51:39.327Z,3.95
2022-10-23T19:54:07.896Z,3.83
2022-10-23T19:56:37.070Z,3.95
2022-10-23T19:59:05.616Z,4.30
2022-10-23T20:01:35.395Z,3.70
2022-10-23T20:04:03.300Z,3.70
2022-10-23T20:06:34.516Z,4.47
2022-10-23T20:09:05.323Z,4.43
2022-10-23T20:11:33.828Z,4.78
2022-10-23T20:14:02.010Z,4.00
2022-10-23T20:16:32.019Z,3.97
2022-10-23T20:19:03.319Z,4.00
2022-10-23T20:21:31.766Z,4.30
2022-10-23T20:24:00.226Z,4.18
2022-10-23T20:26:28.317Z,4.45
2022-10-23T20:28:57.386Z,5.13
2022-10-23T20:31:27.388Z,3.85
2022-10-23T20:33:55.746Z,4.40
2022-10-23T20:36:28.137Z,4.40
2022-10-23T20:38:56.950Z,4.30
2022-10-23T20:41:27.124Z,4.80
2022-10-23T20:43:56.559Z,4.00
2022-10-23T20:46:24.747Z,3.97
2022-10-23T20:48:53.024Z,3.60
2022-10-23T20:51:23.091Z,4.70
2022-10-23T20:53:53.228Z,3.78
2022-10-23T20:56:24.261Z,4.22
2022-10-23T20:58:52.079Z,4.45
2022-10-23T21:01:20.250Z,4.20
2022-10-23T21:03:51.198Z,4.15
2022-10-23T21:06:20.149Z,4.40
2022-10-23T21:08:48.207Z,4.88
2022-10-23T21:11:18.644Z,4.82
2022-10-23T21:13:46.454Z,4.15
2022-10-23T21:16:16.022Z,5.18
2022-10-23T21:18:46.687Z,4.28
2022-10-23T21:21:17.025Z,4.40
2022-10-23T21:23:45.025Z,4.25
2022-10-23T21:26:13.544Z,4.13
2022-10-23T21:28:55.650Z,4.50
2022-10-23T21:31:33.531Z,5.38
2022-10-23T21:34:01.548Z,4.40
2022-10-23T21:36:31.038Z,4.40
2022-10-23T21:39:01.419Z,4.55
2022-10-23T21:41:31.111Z,4.78
2022-10-23T21:44:02.614Z,4.72
2022-10-23T21:46:31.908Z,4.40
2022-10-23T21:49:00.432Z,5.30
2022-10-23T21:51:31.334Z,4.80
2022-10-23T21:53:59.626Z,5.00
2022-10-23T21:56:31.276Z,4.60
2022-10-23T21:59:02.448Z,4.90
2022-10-23T22:01:30.995Z,4.80
2022-10-23T22:03:59.138Z,5.70
2022-10-23T22:06:29.320Z,5.13
2022-10-23T22:08:59.044Z,5.10
2022-10-23T22:11:28.076Z,4.95
2022-10-23T22:13:56.397Z,5.18
2022-10-23T22:16:25.879Z,5.47
2022-10-23T22:18:54.384Z,4.95
2022-10-23T22:21:25.672Z,5.00
2022-10-23T22:23:56.266Z,5.18
2022-10-23T22:26:27.041Z,5.28
2022-10-23T22:28:56.892Z,4.80
2022-10-23T22:31:31.561Z,5.10
2022-10-23T22:34:08.578Z,5.28
2022-10-23T22:36:47.015Z,5.07
2022-10-23T22:39:14.893Z,5.20
2022-10-23T22:41:43.633Z,5.18
2022-10-23T22:44:12.832Z,5.63
2022-10-23T22:46:43.018Z,4.78
2022-10-23T22:49:11.426Z,5.25
2022-10-23T22:51:39.920Z,5.63
2022-10-23T22:54:08.014Z,5.68
2022-10-23T22:56:36.130Z,4.72
2022-10-23T22:59:04.936Z,5.72
2022-10-23T23:01:36.175Z,5.20
2022-10-23T23:04:19.760Z,4.97
2022-10-23T23:06:53.744Z,5.20
2022-10-23T23:09:21.632Z,5.30
2022-10-23T23:11:52.928Z,4.60
2022-10-23T23:14:23.703Z,4.82
2022-10-23T23:16:53.085Z,4.88
2022-10-23T23:19:23.551Z,4.45
2022-10-23T23:21:51.415Z,4.20
2022-10-23T23:24:19.260Z,4.80
2022-10-23T23:26:47.249Z,4.32
2022-10-23T23:29:15.095Z,4.53
2022-10-23T23:31:42.998Z,4.43
2022-10-23T23:34:11.245Z,4.70
2022-10-23T23:36:40.603Z,4.30
2022-10-23T23:39:08.670Z,4.07
2022-10-23T23:41:36.549Z,4.38
2022-10-23T23:44:04.593Z,4.80
2022-10-23T23:46:32.464Z,4.30
2022-10-23T23:49:00.270Z,3.83
2022-10-23T23:51:28.122Z,4.63
2022-10-23T23:53:57.329Z,4.70
2022-10-23T23:56:25.225Z,4.03
2022-10-23T23:58:53.495Z,4.30
